createdAt,value
2022-09-01T00:00:22.569Z,1022.09552
2022-09-01T00:02:17.716Z,1022.106689
2022-09-01T00:03:09.775Z,1022.071655
2022-09-01T00:04:10.658Z,1022.071655
2022-09-01T00:05:06.477Z,1022.051025
2022-09-01T00:06:06.682Z,1022.078186
2022-09-01T00:07:00.891Z,1022.081848
2022-09-01T00:08:03.191Z,1022.15863
2022-09-01T00:09:03.045Z,1022.123047
2022-09-01T00:09:56.774Z,1022.099548
2022-09-01T00:11:02.761Z,1022.057495
2022-09-01T00:12:57.037Z,1022.025696
2022-09-01T00:13:51.612Z,1022.12677
2022-09-01T00:15:38.311Z,1022.023926
2022-09-01T00:17:21.150Z,1022.042725
2022-09-01T00:18:21.256Z,1022.084351
2022-09-01T00:19:19.835Z,1022.052368
2022-09-01T00:20:21.917Z,1022.1521
2022-09-01T00:21:21.078Z,1022.081848
2022-09-01T00:22:16.373Z,1022.197021
2022-09-01T00:23:16.328Z,1022.12677
2022-09-01T00:24:12.077Z,1022.156738
2022-09-01T00:25:12.233Z,1022.17627
2022-09-01T00:26:09.218Z,1022.20343
2022-09-01T00:27:13.148Z,1022.186157
2022-09-01T00:28:12.401Z,1022.227539
2022-09-01T00:29:11.573Z,1022.179749
2022-09-01T00:30:06.231Z,1022.15918
2022-09-01T00:31:08.845Z,1022.178467
2022-09-01T00:32:18.240Z,1022.092224
2022-09-01T00:33:17.703Z,1022.128784
2022-09-01T00:34:21.040Z,1022.192627
2022-09-01T00:35:16.975Z,1022.024963
2022-09-01T00:37:14.031Z,1022.167297
2022-09-01T00:38:15.323Z,1022.146545
2022-09-01T00:39:19.931Z,1022.165588
2022-09-01T00:40:12.432Z,1022.141785
2022-09-01T00:41:13.636Z,1022.122437
2022-09-01T00:42:11.791Z,1022.168945
2022-09-01T00:43:11.529Z,1022.120789
2022-09-01T00:44:06.083Z,1022.124573
2022-09-01T00:45:05.920Z,1022.146912
2022-09-01T00:46:01.947Z,1022.119751
2022-09-01T00:47:58.007Z,1022.122559
2022-09-01T00:49:01.177Z,1022.060669
2022-09-01T00:49:56.530Z,1022.13739
2022-09-01T00:50:57.444Z,1022.051208
2022-09-01T00:53:05.468Z,1022.131226
2022-09-01T00:54:00.012Z,1022.084839
2022-09-01T00:55:01.817Z,1022.115356
2022-09-01T00:55:59.343Z,1022.185486
2022-09-01T00:56:57.888Z,1022.100769
2022-09-01T00:57:56.722Z,1022.052979
2022-09-01T00:58:58.488Z,1022.061035
2022-09-01T00:59:57.444Z,1022.045044
2022-09-01T01:01:47.007Z,1022.071899
2022-09-01T01:02:28.630Z,1022.043091
2022-09-01T01:03:26.702Z,1022.060364
2022-09-01T01:04:25.514Z,1022.021973
2022-09-01T01:05:23.458Z,1022.055298
2022-09-01T01:06:23.787Z,1022.001038
2022-09-01T01:07:19.227Z,1022.023438
2022-09-01T01:08:23.216Z,1021.975586
2022-09-01T01:09:17.639Z,1022.0224
2022-09-01T01:10:18.127Z,1021.963379
2022-09-01T01:11:13.031Z,1022.001526
2022-09-01T01:12:13.017Z,1022.036377
2022-09-01T01:13:08.398Z,1022.004456
2022-09-01T01:14:11.032Z,1022.031616
2022-09-01T01:15:05.406Z,1021.953857
2022-09-01T01:16:02.968Z,1022.015686
2022-09-01T01:17:57.300Z,1021.995544
2022-09-01T01:19:01.043Z,1021.979675
2022-09-01T01:20:02.422Z,1022.021057
2022-09-01T01:20:56.620Z,1021.966797
2022-09-01T01:22:00.402Z,1022.002014
2022-09-01T01:22:55.663Z,1022.005005
2022-09-01T01:23:55.952Z,1021.977844
2022-09-01T01:24:51.758Z,1021.946106
2022-09-01T01:25:52.088Z,1021.981262
2022-09-01T01:26:48.385Z,1021.923645
2022-09-01T01:27:53.621Z,1022.027466
2022-09-01T01:28:46.943Z,1021.965332
2022-09-01T01:29:56.255Z,1021.977844
2022-09-01T01:30:48.227Z,1021.998657
2022-09-01T01:32:41.840Z,1021.976196
2022-09-01T01:33:40.739Z,1022.014587
2022-09-01T01:34:43.655Z,1021.998657
2022-09-01T01:35:38.298Z,1022.021057
2022-09-01T01:36:37.958Z,1022.056335
2022-09-01T01:37:32.714Z,1021.977844
2022-09-01T01:38:32.158Z,1021.973267
2022-09-01T01:39:28.170Z,1021.987671
2022-09-01T01:40:27.417Z,1022.045044
2022-09-01T01:42:25.380Z,1021.936646
2022-09-01T01:43:53.522Z,1021.982849
2022-09-01T01:44:37.587Z,1021.967102
2022-09-01T01:45:39.319Z,1022.010132
2022-09-01T01:47:39.135Z,1021.967102
2022-09-01T01:48:42.115Z,1022.00061
2022-09-01T01:49:37.653Z,1021.957581
2022-09-01T01:50:44.071Z,1022.015564
2022-09-01T01:51:42.054Z,1022.011902
2022-09-01T01:52:39.822Z,1022.00708
2022-09-01T01:52:45.461Z,1022.00708
2022-09-01T01:53:45.249Z,1022.026611
2022-09-01T01:54:40.628Z,1022.107971
2022-09-01T01:55:48.495Z,1022.053711
2022-09-01T01:56:45.066Z,1022.077209
2022-09-01T01:57:48.129Z,1022.157532
2022-09-01T01:58:46.253Z,1022.163818
2022-09-01T01:59:46.034Z,1022.120789
2022-09-01T02:00:46.020Z,1022.178223
2022-09-01T02:01:42.346Z,1022.25647
2022-09-01T02:02:41.775Z,1022.170288
2022-09-01T02:03:41.493Z,1022.208618
2022-09-01T02:04:42.649Z,1022.246826
2022-09-01T02:05:42.805Z,1022.231018
2022-09-01T02:07:38.203Z,1022.266479
2022-09-01T02:08:38.388Z,1022.203857
2022-09-01T02:09:39.470Z,1022.269348
2022-09-01T02:10:34.991Z,1022.237366
2022-09-01T02:11:39.853Z,1022.215088
2022-09-01T02:12:40.117Z,1022.268005
2022-09-01T02:13:40.532Z,1022.197998
2022-09-01T02:14:39.561Z,1022.177246
2022-09-01T02:15:44.584Z,1022.172546
2022-09-01T02:17:41.447Z,1022.17511
2022-09-01T02:18:40.621Z,1022.194702
2022-09-01T02:19:38.722Z,1022.228333
2022-09-01T02:20:35.378Z,1022.157959
2022-09-01T02:22:30.889Z,1022.170898
2022-09-01T02:23:29.071Z,1022.244202
2022-09-01T02:24:29.714Z,1022.244202
2022-09-01T02:25:29.970Z,1022.220337
2022-09-01T02:26:31.321Z,1022.209229
2022-09-01T02:27:32.853Z,1022.212219
2022-09-01T02:28:30.194Z,1022.172485
2022-09-01T02:29:40.166Z,1022.159607
2022-09-01T02:29:43.493Z,1022.159607
2022-09-01T02:32:23.090Z,1022.202698
2022-09-01T02:33:25.879Z,1022.191528
2022-09-01T02:34:21.361Z,1022.225098
2022-09-01T02:35:26.746Z,1022.091064
2022-09-01T02:38:23.873Z,1022.178345
2022-09-01T02:39:05.007Z,1022.180359
2022-09-01T02:40:12.616Z,1022.14209
2022-09-01T02:41:13.030Z,1022.187988
2022-09-01T02:42:09.329Z,1022.167175
2022-09-01T02:43:27.122Z,1022.226685
2022-09-01T02:44:28.763Z,1022.155029
2022-09-01T02:45:28.697Z,1022.199646
2022-09-01T02:46:30.761Z,1022.091125
2022-09-01T02:47:29.878Z,1022.163086
2022-09-01T02:48:30.778Z,1022.204285
2022-09-01T02:49:26.685Z,1022.129822
2022-09-01T02:50:34.994Z,1022.152222
2022-09-01T02:51:34.744Z,1022.170959
2022-09-01T02:52:33.142Z,1022.192017
2022-09-01T02:53:33.073Z,1022.140564
2022-09-01T02:54:39.000Z,1022.161743
2022-09-01T02:55:38.180Z,1022.171448
2022-09-01T02:56:42.485Z,1022.190369
2022-09-01T02:57:51.392Z,1022.176208
2022-09-01T02:58:47.320Z,1022.182495
2022-09-01T02:59:50.726Z,1022.215881
2022-09-01T03:00:45.642Z,1022.172913
2022-09-01T03:01:46.736Z,1022.215881
2022-09-01T03:02:51.391Z,1022.143738
2022-09-01T03:03:47.487Z,1022.166016
2022-09-01T03:04:54.380Z,1022.169556
2022-09-01T03:05:51.107Z,1022.164734
2022-09-01T03:06:58.575Z,1022.104126
2022-09-01T03:07:56.909Z,1022.126587
2022-09-01T03:08:54.768Z,1022.156982
2022-09-01T03:10:00.588Z,1022.195129
2022-09-01T03:10:57.416Z,1022.201294
2022-09-01T03:12:22.650Z,1022.225281
2022-09-01T03:13:03.383Z,1022.1521
2022-09-01T03:14:01.517Z,1022.203003
2022-09-01T03:15:01.133Z,1022.159973
2022-09-01T03:15:57.816Z,1022.214172
2022-09-01T03:16:57.509Z,1022.195129
2022-09-01T03:17:55.586Z,1022.250793
2022-09-01T03:18:55.211Z,1022.210754
2022-09-01T03:19:50.578Z,1022.245972
2022-09-01T03:20:53.904Z,1022.232971
2022-09-01T03:21:49.104Z,1022.29834
2022-09-01T03:22:54.366Z,1022.253784
2022-09-01T03:23:48.716Z,1022.307922
2022-09-01T03:24:56.455Z,1022.21698
2022-09-01T03:25:52.860Z,1022.250427
2022-09-01T03:27:54.225Z,1022.191345
2022-09-01T03:28:59.907Z,1022.257141
2022-09-01T03:30:01.653Z,1022.266541
2022-09-01T03:31:00.209Z,1022.280884
2022-09-01T03:32:03.194Z,1022.245728
2022-09-01T03:33:02.669Z,1022.239136
2022-09-01T03:33:57.478Z,1022.269836
2022-09-01T03:35:04.956Z,1022.210754
2022-09-01T03:36:03.387Z,1022.217041
2022-09-01T03:38:03.436Z,1022.289917
2022-09-01T03:39:01.132Z,1022.219849
2022-09-01T03:40:00.736Z,1022.296204
2022-09-01T03:40:56.373Z,1022.286438
2022-09-01T03:41:57.281Z,1022.2948
2022-09-01T03:42:52.715Z,1022.285095
2022-09-01T03:43:52.221Z,1022.264221
2022-09-01T03:44:50.179Z,1022.291382
2022-09-01T03:45:00.857Z,1022.291382
2022-09-01T03:45:56.639Z,1022.294495
2022-09-01T03:47:24.380Z,1022.288269
2022-09-01T03:48:08.239Z,1022.277283
2022-09-01T03:49:09.924Z,1022.269226
2022-09-01T03:50:12.693Z,1022.245361
2022-09-01T03:51:14.913Z,1022.254578
2022-09-01T03:52:15.090Z,1022.244751
2022-09-01T03:53:22.487Z,1022.278748
2022-09-01T03:54:26.100Z,1022.273743
2022-09-01T03:55:21.483Z,1022.255554
2022-09-01T03:56:24.071Z,1022.220642
2022-09-01T03:57:24.928Z,1022.255554
2022-09-01T03:58:25.208Z,1022.272461
2022-09-01T03:59:26.779Z,1022.245483
2022-09-01T04:00:32.292Z,1022.178894
2022-09-01T04:01:32.173Z,1022.222046
2022-09-01T04:02:31.293Z,1022.247375
2022-09-01T04:03:32.960Z,1022.272583
2022-09-01T04:04:33.213Z,1022.178528
2022-09-01T04:05:31.128Z,1022.243774
2022-09-01T04:07:31.911Z,1022.235718
2022-09-01T04:08:33.265Z,1022.176697
2022-09-01T04:09:33.298Z,1022.245117
2022-09-01T04:10:31.217Z,1022.21051
2022-09-01T04:12:28.763Z,1022.214783
2022-09-01T04:13:30.269Z,1022.164001
2022-09-01T04:14:29.989Z,1022.116028
2022-09-01T04:15:24.962Z,1022.127136
2022-09-01T04:16:24.273Z,1022.22168
2022-09-01T04:17:19.417Z,1022.15918
2022-09-01T04:18:21.442Z,1022.13562
2022-09-01T04:19:21.715Z,1022.181274
2022-09-01T04:20:21.036Z,1022.200867
2022-09-01T04:22:15.575Z,1022.152893
2022-09-01T04:23:19.053Z,1022.209534
2022-09-01T04:24:45.167Z,1022.17334
2022-09-01T04:25:24.496Z,1022.181152
2022-09-01T04:27:24.963Z,1022.310181
2022-09-01T04:28:25.621Z,1022.188599
2022-09-01T04:29:27.514Z,1022.214417
2022-09-01T04:30:25.006Z,1022.247498
2022-09-01T04:31:31.941Z,1022.261902
2022-09-01T04:32:27.123Z,1022.264893
2022-09-01T04:33:26.909Z,1022.275818
2022-09-01T04:34:27.305Z,1022.173828
2022-09-01T04:35:23.568Z,1022.23114
2022-09-01T04:37:22.815Z,1022.212524
2022-09-01T04:38:23.404Z,1022.234619
2022-09-01T04:39:23.383Z,1022.19165
2022-09-01T04:40:22.825Z,1022.210266
2022-09-01T04:42:21.603Z,1022.183228
2022-09-01T04:43:16.911Z,1022.194153
2022-09-01T04:44:18.488Z,1022.170837
2022-09-01T04:45:20.462Z,1022.202637
2022-09-01T04:45:20.917Z,1022.202637
2022-09-01T04:46:25.395Z,1022.25061
2022-09-01T04:47:26.411Z,1022.253296
2022-09-01T04:48:20.180Z,1022.237366
2022-09-01T04:49:24.329Z,1022.243469
2022-09-01T04:50:20.730Z,1022.297546
2022-09-01T04:51:17.234Z,1022.2948
2022-09-01T04:52:17.431Z,1022.273987
2022-09-01T04:53:13.647Z,1022.226074
2022-09-01T04:54:17.609Z,1022.309814
2022-09-01T04:55:12.944Z,1022.194031
2022-09-01T04:56:15.648Z,1022.302246
2022-09-01T04:57:13.699Z,1022.228699
2022-09-01T04:58:23.377Z,1022.205078
2022-09-01T04:59:27.583Z,1022.359497
2022-09-01T05:00:28.304Z,1022.327576
2022-09-01T05:01:27.613Z,1022.24646
2022-09-01T05:03:15.270Z,1022.368713
2022-09-01T05:05:01.332Z,1022.309021
2022-09-01T05:05:43.660Z,1022.356934
2022-09-01T05:06:45.563Z,1022.342957
2022-09-01T05:07:47.539Z,1022.383911
2022-09-01T05:08:47.689Z,1022.377319
2022-09-01T05:09:48.042Z,1022.337891
2022-09-01T05:10:47.116Z,1022.398071
2022-09-01T05:12:46.065Z,1022.352783
2022-09-01T05:13:58.040Z,1022.445007
2022-09-01T05:14:54.319Z,1022.356201
2022-09-01T05:15:54.906Z,1022.35144
2022-09-01T05:17:52.305Z,1022.399292
2022-09-01T05:18:55.983Z,1022.374817
2022-09-01T05:19:58.841Z,1022.386536
2022-09-01T05:21:01.120Z,1022.346497
2022-09-01T05:21:58.664Z,1022.273438
2022-09-01T05:23:05.637Z,1022.349609
2022-09-01T05:24:05.738Z,1022.403564
2022-09-01T05:25:07.774Z,1022.338623
2022-09-01T05:26:06.422Z,1022.381531
2022-09-01T05:28:09.782Z,1022.394287
2022-09-01T05:29:05.498Z,1022.394287
2022-09-01T05:30:07.593Z,1022.372253
2022-09-01T05:31:06.785Z,1022.393188
2022-09-01T05:33:08.069Z,1022.414124
2022-09-01T05:34:14.179Z,1022.310852
2022-09-01T05:35:13.012Z,1022.388367
2022-09-01T05:36:12.403Z,1022.371216
2022-09-01T05:37:12.100Z,1022.383911
2022-09-01T05:38:07.850Z,1022.365051
2022-09-01T05:39:14.467Z,1022.419128
2022-09-01T05:40:09.042Z,1022.361938
2022-09-01T05:41:40.388Z,1022.411743
2022-09-01T05:42:21.004Z,1022.387939
2022-09-01T05:43:22.729Z,1022.374023
2022-09-01T05:44:20.850Z,1022.354614
2022-09-01T05:45:19.737Z,1022.43927
2022-09-01T05:46:19.512Z,1022.446777
2022-09-01T05:47:20.652Z,1022.462708
2022-09-01T05:48:15.548Z,1022.347046
2022-09-01T05:49:10.883Z,1022.435669
2022-09-01T05:50:14.340Z,1022.406067
2022-09-01T05:51:17.651Z,1022.433105
2022-09-01T05:51:33.387Z,1022.433105
2022-09-01T05:51:42.266Z,1022.433105
2022-09-01T05:53:05.318Z,1022.422058
2022-09-01T05:53:11.054Z,1022.422058
2022-09-01T05:54:00.606Z,1022.454041
2022-09-01T05:55:00.339Z,1022.369751
2022-09-01T05:55:56.392Z,1022.474854
2022-09-01T05:57:51.563Z,1022.348938
2022-09-01T05:59:49.681Z,1022.36792
2022-09-01T06:00:53.236Z,1022.364807
2022-09-01T06:01:50.043Z,1022.493835
2022-09-01T06:02:46.762Z,1022.432007
2022-09-01T06:03:41.554Z,1022.415894
2022-09-01T06:04:42.763Z,1022.449036
2022-09-01T06:05:38.650Z,1022.476196
2022-09-01T06:06:54.979Z,1022.411072
2022-09-01T06:07:01.748Z,1022.411072
2022-09-01T06:07:06.040Z,1022.411072
2022-09-01T06:07:37.293Z,1022.508179
2022-09-01T06:08:32.962Z,1022.444641
2022-09-01T06:09:33.384Z,1022.42572
2022-09-01T06:10:34.220Z,1022.479858
2022-09-01T06:11:33.234Z,1022.466797
2022-09-01T06:12:28.590Z,1022.463806
2022-09-01T06:13:28.848Z,1022.444641
2022-09-01T06:14:25.397Z,1022.463806
2022-09-01T06:15:24.955Z,1022.486023
2022-09-01T06:17:28.105Z,1022.488892
2022-09-01T06:18:22.971Z,1022.511108
2022-09-01T06:19:22.881Z,1022.535217
2022-09-01T06:20:19.907Z,1022.549255
2022-09-01T06:21:21.706Z,1022.546387
2022-09-01T06:23:13.224Z,1022.522156
2022-09-01T06:24:14.428Z,1022.533386
2022-09-01T06:25:08.319Z,1022.444275
2022-09-01T06:26:12.106Z,1022.587402
2022-09-01T06:27:04.804Z,1022.487305
2022-09-01T06:28:04.727Z,1022.641479
2022-09-01T06:29:01.000Z,1022.587402
2022-09-01T06:30:02.380Z,1022.544312
2022-09-01T06:31:01.449Z,1022.558655
2022-09-01T06:32:00.489Z,1022.498352
2022-09-01T06:32:55.256Z,1022.536499
2022-09-01T06:33:55.593Z,1022.536499
2022-09-01T06:34:51.142Z,1022.578186
2022-09-01T06:35:53.866Z,1022.622437
2022-09-01T06:36:46.460Z,1022.497009
2022-09-01T06:37:47.518Z,1022.598511
2022-09-01T06:38:41.968Z,1022.592224
2022-09-01T06:39:42.135Z,1022.538269
2022-09-01T06:40:37.173Z,1022.519287
2022-09-01T06:42:32.562Z,1022.62616
2022-09-01T06:43:32.791Z,1022.546692
2022-09-01T06:44:40.476Z,1022.605591
2022-09-01T06:44:41.208Z,1022.605591
2022-09-01T06:47:02.159Z,1022.551819
2022-09-01T06:47:08.022Z,1022.520996
2022-09-01T06:48:07.165Z,1022.528809
2022-09-01T06:49:08.011Z,1022.502258
2022-09-01T06:50:03.608Z,1022.51825
2022-09-01T06:51:15.926Z,1022.529358
2022-09-01T06:51:21.261Z,1022.529358
2022-09-01T06:52:02.367Z,1022.52124
2022-09-01T06:53:59.853Z,1022.516296
2022-09-01T06:55:03.390Z,1022.525879
2022-09-01T06:55:08.163Z,1022.525879
2022-09-01T06:55:58.715Z,1022.534424
2022-09-01T06:56:54.167Z,1022.589966
2022-09-01T06:58:04.734Z,1022.605896
2022-09-01T06:58:05.967Z,1022.605896
2022-09-01T06:58:53.154Z,1022.553772
2022-09-01T06:59:52.495Z,1022.539001
2022-09-01T07:00:49.001Z,1022.540649
2022-09-01T07:01:52.375Z,1022.52179
2022-09-01T07:02:44.969Z,1022.559814
2022-09-01T07:03:45.178Z,1022.583679
2022-09-01T07:04:40.649Z,1022.507324
2022-09-01T07:06:02.426Z,1022.566223
2022-09-01T07:06:06.435Z,1022.566223
2022-09-01T07:08:04.701Z,1022.475769
2022-09-01T07:08:06.235Z,1022.475769
2022-09-01T07:09:19.021Z,1022.480347
2022-09-01T07:09:47.749Z,1022.465881
2022-09-01T07:09:47.972Z,1022.465881
2022-09-01T07:09:50.138Z,1022.465881
2022-09-01T07:11:19.594Z,1022.54895
2022-09-01T07:12:35.078Z,1022.466003
2022-09-01T07:13:38.792Z,1022.503784
2022-09-01T07:15:33.971Z,1022.494629
2022-09-01T07:16:31.921Z,1022.438232
2022-09-01T07:16:42.094Z,1022.516418
2022-09-01T07:16:51.876Z,1022.516418
2022-09-01T07:17:34.439Z,1022.493713
2022-09-01T07:18:34.471Z,1022.434387
2022-09-01T07:19:48.891Z,1022.461548
2022-09-01T07:19:51.537Z,1022.461548
2022-09-01T07:20:31.218Z,1022.443909
2022-09-01T07:21:42.436Z,1022.463257
2022-09-01T07:22:06.701Z,1022.463257
2022-09-01T07:22:37.178Z,1022.44873
2022-09-01T07:23:02.970Z,1022.44873
2022-09-01T07:24:10.386Z,1022.529663
2022-09-01T07:24:32.954Z,1022.496033
2022-09-01T07:26:00.471Z,1022.417603
2022-09-01T07:26:01.325Z,1022.417603
2022-09-01T07:26:01.431Z,1022.417603
2022-09-01T07:27:36.262Z,1022.44165
2022-09-01T07:27:36.271Z,1022.44165
2022-09-01T07:27:40.610Z,1022.44165
2022-09-01T07:28:37.324Z,1022.401062
2022-09-01T07:28:37.811Z,1022.401062
2022-09-01T07:29:32.265Z,1022.489136
2022-09-01T07:30:30.239Z,1022.397583
2022-09-01T07:32:41.178Z,1022.413452
2022-09-01T07:32:47.866Z,1022.421265
2022-09-01T07:32:49.235Z,1022.421265
2022-09-01T07:33:41.962Z,1022.416382
2022-09-01T07:33:44.455Z,1022.416382
2022-09-01T07:33:51.662Z,1022.416382
2022-09-01T07:34:39.635Z,1022.329773
2022-09-01T07:34:41.441Z,1022.329773
2022-09-01T07:34:46.172Z,1022.329773
2022-09-01T07:35:31.400Z,1022.428223
2022-09-01T07:36:28.967Z,1022.448914
2022-09-01T07:39:49.986Z,1022.323853
2022-09-01T07:39:55.333Z,1022.323853
2022-09-01T07:39:57.486Z,1022.529358
2022-09-01T07:42:56.479Z,1022.463257
2022-09-01T07:42:58.863Z,1022.403931
2022-09-01T07:43:32.823Z,1022.408325
2022-09-01T07:44:32.345Z,1022.320129
2022-09-01T07:45:30.336Z,1022.325073
2022-09-01T07:46:37.957Z,1022.328125
2022-09-01T07:46:39.819Z,1022.328125
2022-09-01T07:47:53.449Z,1022.391968
2022-09-01T07:47:57.956Z,1022.391968
2022-09-01T07:48:37.203Z,1022.390198
2022-09-01T07:49:02.559Z,1022.390198
2022-09-01T07:49:54.797Z,1022.301025
2022-09-01T07:50:11.456Z,1022.301025
2022-09-01T07:50:12.589Z,1022.301025
2022-09-01T07:51:34.229Z,1022.33429
2022-09-01T07:51:35.044Z,1022.33429
2022-09-01T07:52:36.409Z,1022.398743
2022-09-01T07:53:34.430Z,1022.319702
2022-09-01T07:54:36.985Z,1022.346924
2022-09-01T07:55:34.962Z,1022.288757
2022-09-01T07:56:40.533Z,1022.277466
2022-09-01T07:57:37.678Z,1022.301208
2022-09-01T07:58:35.954Z,1022.302734
2022-09-01T07:59:37.071Z,1022.324463
2022-09-01T08:00:41.074Z,1022.299866
2022-09-01T08:02:37.821Z,1022.325867
2022-09-01T08:03:39.449Z,1022.285339
2022-09-01T08:04:37.595Z,1022.245117
2022-09-01T08:05:40.050Z,1022.277954
2022-09-01T08:06:38.599Z,1022.262939
2022-09-01T08:07:52.001Z,1022.256165
2022-09-01T08:07:52.792Z,1022.256165
2022-09-01T08:07:55.608Z,1022.256165
2022-09-01T08:10:12.204Z,1022.284973
2022-09-01T08:11:11.297Z,1022.283875
2022-09-01T08:12:12.022Z,1022.321106
2022-09-01T08:13:08.275Z,1022.268188
2022-09-01T08:14:09.125Z,1022.218262
2022-09-01T08:15:13.022Z,1022.304138
2022-09-01T08:15:37.973Z,1022.304138
2022-09-01T08:15:41.561Z,1022.304138
2022-09-01T08:16:08.316Z,1022.290527
2022-09-01T08:18:05.516Z,1022.306885
2022-09-01T08:19:04.542Z,1022.31604
2022-09-01T08:20:00.954Z,1022.320557
2022-09-01T08:21:01.597Z,1022.356323
2022-09-01T08:21:57.951Z,1022.196289
2022-09-01T08:22:58.974Z,1022.310913
2022-09-01T08:23:55.396Z,1022.292664
2022-09-01T08:24:56.690Z,1022.294006
2022-09-01T08:25:53.237Z,1022.262207
2022-09-01T08:27:59.837Z,1022.25946
2022-09-01T08:28:00.019Z,1022.25946
2022-09-01T08:28:56.025Z,1022.22522
2022-09-01T08:29:51.271Z,1022.223083
2022-09-01T08:30:52.519Z,1022.239868
2022-09-01T08:32:50.813Z,1022.316162
2022-09-01T08:33:47.523Z,1022.26709
2022-09-01T08:34:49.186Z,1022.310242
2022-09-01T08:35:45.923Z,1022.337463
2022-09-01T08:36:50.170Z,1022.244385
2022-09-01T08:37:44.627Z,1022.194336
2022-09-01T08:38:46.248Z,1022.201843
2022-09-01T08:39:43.396Z,1022.242554
2022-09-01T08:40:45.026Z,1022.208496
2022-09-01T08:42:46.498Z,1022.232727
2022-09-01T08:43:40.887Z,1022.25708
2022-09-01T08:44:42.734Z,1022.160645
2022-09-01T08:45:40.015Z,1022.176453
2022-09-01T08:47:55.934Z,1022.185852
2022-09-01T08:48:15.319Z,1022.185852
2022-09-01T08:48:28.700Z,1022.185852
2022-09-01T08:49:27.077Z,1022.154541
2022-09-01T08:50:27.083Z,1022.147034
2022-09-01T08:51:25.025Z,1022.166565
2022-09-01T08:53:22.653Z,1022.105957
2022-09-01T08:54:29.729Z,1022.102661
2022-09-01T08:54:32.140Z,1022.102661
2022-09-01T08:56:57.465Z,1022.182983
2022-09-01T08:58:05.217Z,1022.09613
2022-09-01T08:59:05.603Z,1022.132874
2022-09-01T09:00:04.286Z,1022.123901
2022-09-01T09:01:05.413Z,1022.100098
2022-09-01T09:02:03.883Z,1022.093994
2022-09-01T09:03:04.598Z,1022.072937
2022-09-01T09:04:02.542Z,1022.043518
2022-09-01T09:05:15.438Z,1022.062866
2022-09-01T09:05:16.266Z,1022.062866
2022-09-01T09:05:16.789Z,1022.062866
2022-09-01T09:06:03.829Z,1022.044434
2022-09-01T09:07:01.496Z,1022.100281
2022-09-01T09:08:06.979Z,1022.155701
2022-09-01T09:09:03.185Z,1022.108032
2022-09-01T09:10:00.495Z,1022.085754
2022-09-01T09:11:01.975Z,1022.112488
2022-09-01T09:11:59.135Z,1022.069336
2022-09-01T09:13:01.553Z,1022.026733
2022-09-01T09:13:57.818Z,1022.026733
2022-09-01T09:14:59.412Z,1022.012146
2022-09-01T09:16:07.298Z,1022.047058
2022-09-01T09:16:08.310Z,1022.047058
2022-09-01T09:16:09.053Z,1022.047058
2022-09-01T09:16:58.373Z,1021.973572
2022-09-01T09:17:59.794Z,1022.026733
2022-09-01T09:18:00.573Z,1022.026733
2022-09-01T09:18:59.771Z,1022.023682
2022-09-01T09:19:54.971Z,1022.050964
2022-09-01T09:20:58.415Z,1021.980957
2022-09-01T09:22:54.391Z,1022.026733
2022-09-01T09:23:51.161Z,1022.066711
2022-09-01T09:24:53.066Z,1022.062866
2022-09-01T09:25:50.645Z,1022.031067
2022-09-01T09:27:49.570Z,1021.978577
2022-09-01T09:28:51.391Z,1022.057983
2022-09-01T09:29:49.281Z,1021.979309
2022-09-01T09:30:50.994Z,1021.968994
2022-09-01T09:33:24.923Z,1021.907471
2022-09-01T09:33:46.496Z,1021.907471
2022-09-01T09:33:52.579Z,1021.916382
2022-09-01T09:34:50.724Z,1021.987732
2022-09-01T09:35:47.559Z,1021.924744
2022-09-01T09:36:55.309Z,1021.815002
2022-09-01T09:36:57.381Z,1021.815002
2022-09-01T09:37:49.173Z,1021.880127
2022-09-01T09:38:45.879Z,1021.846802
2022-09-01T09:39:49.902Z,1021.826416
2022-09-01T09:41:10.583Z,1021.896912
2022-09-01T09:41:12.264Z,1021.896912
2022-09-01T09:41:15.915Z,1021.896912
2022-09-01T09:41:46.322Z,1021.825623
2022-09-01T09:42:43.362Z,1021.835205
2022-09-01T09:43:47.576Z,1021.768433
2022-09-01T09:44:41.320Z,1021.834351
2022-09-01T09:45:42.745Z,1021.779785
2022-09-01T09:46:39.233Z,1021.747131
2022-09-01T09:47:44.631Z,1021.726685
2022-09-01T09:48:36.947Z,1021.85553
2022-09-01T09:49:44.229Z,1021.805298
2022-09-01T09:49:48.691Z,1021.805298
2022-09-01T09:49:49.022Z,1021.805298
2022-09-01T09:50:41.656Z,1021.719788
2022-09-01T09:51:36.115Z,1021.770996
2022-09-01T09:52:40.623Z,1021.798279
2022-09-01T09:53:35.094Z,1021.7005
2022-09-01T09:54:38.907Z,1021.774414
2022-09-01T09:55:33.292Z,1021.672058
2022-09-01T09:56:34.493Z,1021.682617
2022-09-01T09:57:57.627Z,1021.671204
2022-09-01T09:58:37.927Z,1021.636902
2022-09-01T09:59:56.959Z,1021.583191
2022-09-01T09:59:57.602Z,1021.583191
2022-09-01T09:59:58.819Z,1021.583191
2022-09-01T10:00:37.420Z,1021.725159
2022-09-01T10:01:34.099Z,1021.690369
2022-09-01T10:03:30.607Z,1021.562073
2022-09-01T10:04:31.225Z,1021.539307
2022-09-01T10:05:26.684Z,1021.53479
2022-09-01T10:06:27.222Z,1021.537964
2022-09-01T10:08:23.561Z,1021.514587
2022-09-01T10:09:22.052Z,1021.549988
2022-09-01T10:10:20.883Z,1021.459106
2022-09-01T10:11:17.253Z,1021.431824
2022-09-01T10:12:17.620Z,1021.423828
2022-09-01T10:13:13.798Z,1021.458984
2022-09-01T10:14:11.007Z,1021.42041
2022-09-01T10:15:13.979Z,1021.443298
2022-09-01T10:16:09.206Z,1021.443298
2022-09-01T10:18:19.991Z,1021.458069
2022-09-01T10:18:29.656Z,1021.458069
2022-09-01T10:19:07.163Z,1021.458069
2022-09-01T10:19:12.557Z,1021.458069
2022-09-01T10:19:59.998Z,1021.46698
2022-09-01T10:20:59.923Z,1021.507568
2022-09-01T10:21:07.059Z,1021.452942
2022-09-01T10:22:07.364Z,1021.448975
2022-09-01T10:23:03.816Z,1021.48468
2022-09-01T10:24:17.672Z,1021.421692
2022-09-01T10:24:21.122Z,1021.421692
2022-09-01T10:24:26.942Z,1021.421692
2022-09-01T10:25:03.332Z,1021.394409
2022-09-01T10:25:58.281Z,1021.441467
2022-09-01T10:27:54.856Z,1021.444519
2022-09-01T10:28:54.178Z,1021.452942
2022-09-01T10:29:49.621Z,1021.409851
2022-09-01T10:30:50.421Z,1021.389954
2022-09-01T10:32:54.269Z,1021.419373
2022-09-01T10:32:55.701Z,1021.419373
2022-09-01T10:33:47.808Z,1021.39563
2022-09-01T10:34:43.313Z,1021.384216
2022-09-01T10:35:44.554Z,1021.281982
2022-09-01T10:36:40.022Z,1021.273071
2022-09-01T10:38:35.664Z,1021.3703
2022-09-01T10:39:42.992Z,1021.327271
2022-09-01T10:39:43.296Z,1021.327271
2022-09-01T10:41:20.827Z,1021.273926
2022-09-01T10:42:01.214Z,1021.360229
2022-09-01T10:42:59.237Z,1021.266968
2022-09-01T10:44:02.230Z,1021.255432